Time;durP1;ratioP1;P1;durP2;ratioP2;P2;SDS_P1;SDS_P2;PMS_P1;PMS_P2;Temp;Humidity;BMP_temperature;BMP_pressure;BME280_temperature;BME280_humidity;BME280_pressure;Samples;Min_cycle;Max_cycle;Signal;HPM_P1;HPM_P2
2022/02/02 00:01:50;;;;;;;7.57;2.00;;;9.70;99.90;;;;;;5076366;28;20233;-84
2022/02/02 00:04:26;;;;;;;9.80;2.73;;;9.70;99.90;;;;;;5076241;28;20221;-88
2022/02/02 00:07:08;;;;;;;7.93;2.90;;;9.70;99.90;;;;;;5076392;28;20186;-83
2022/02/02 00:09:37;;;;;;;11.17;2.30;;;9.70;99.90;;;;;;5076329;28;20226;-90
2022/02/02 00:12:15;;;;;;;14.00;3.10;;;9.70;99.90;;;;;;5078078;28;20200;-88
2022/02/02 00:20:24;;;;;;;11.47;2.90;;;9.50;99.90;;;;;;5085218;28;20339;-81
2022/02/02 00:22:58;;;;;;;17.57;3.00;;;9.50;99.90;;;;;;5085969;28;20292;-82
2022/02/02 00:25:32;;;;;;;12.40;2.87;;;9.60;99.90;;;;;;5086542;28;20198;-79
2022/02/02 00:28:03;;;;;;;12.83;3.03;;;9.60;99.90;;;;;;5084241;28;20229;-83
2022/02/02 00:30:34;;;;;;;11.47;3.20;;;9.50;99.90;;;;;;5081493;28;20206;-83
2022/02/02 00:33:17;;;;;;;13.17;3.07;;;9.50;99.90;;;;;;5080595;28;20197;-86
2022/02/02 00:36:03;;;;;;;10.40;3.37;;;9.60;99.90;;;;;;5076989;28;20237;-87
2022/02/02 00:38:30;;;;;;;10.00;3.00;;;9.50;99.90;;;;;;5075411;28;20665;-83
2022/02/02 00:40:58;;;;;;;16.87;3.33;;;9.60;99.90;;;;;;5076641;28;20240;-87
2022/02/02 00:43:35;;;;;;;7.30;2.27;;;9.60;99.90;;;;;;5077235;28;20660;-81
2022/02/02 00:46:02;;;;;;;15.97;2.97;;;9.60;99.90;;;;;;5076342;28;20203;-83
2022/02/02 00:48:32;;;;;;;12.83;2.80;;;9.50;99.90;;;;;;5075058;28;20324;-84
2022/02/02 00:51:05;;;;;;;16.20;3.63;;;9.40;99.90;;;;;;5078668;28;20189;-85
2022/02/02 00:53:37;;;;;;;10.87;2.97;;;9.50;99.90;;;;;;5082762;28;20201;-89
2022/02/02 00:56:07;;;;;;;14.47;3.23;;;9.50;99.90;;;;;;5081904;28;20209;-82
2022/02/02 00:58:36;;;;;;;11.30;3.03;;;9.50;99.90;;;;;;5082027;28;20205;-84
2022/02/02 01:01:03;;;;;;;16.87;3.40;;;9.40;99.90;;;;;;5081779;28;20193;-84
2022/02/02 01:03:31;;;;;;;15.83;3.20;;;9.40;99.90;;;;;;5082249;28;20197;-86
2022/02/02 01:06:00;;;;;;;12.20;3.13;;;9.50;99.90;;;;;;5082942;28;20205;-83
2022/02/02 01:08:46;;;;;;;16.83;3.60;;;9.50;99.90;;;;;;5081940;28;20590;-86
2022/02/02 01:11:43;;;;;;;12.30;2.93;;;9.50;99.90;;;;;;5081851;28;20209;-86
2022/02/02 01:19:43;;;;;;;13.53;3.33;;;9.60;99.90;;;;;;5081757;28;20200;-83
2022/02/02 01:22:18;;;;;;;10.17;2.73;;;9.60;99.90;;;;;;5081904;28;20210;-84
2022/02/02 01:27:49;;;;;;;16.07;3.47;;;9.60;99.90;;;;;;5080971;28;20189;-89
2022/02/02 01:30:16;;;;;;;8.80;2.93;;;9.60;99.90;;;;;;5081546;28;20200;-90
2022/02/02 01:32:44;;;;;;;7.47;2.90;;;9.60;99.90;;;;;;5081571;28;20259;-87
2022/02/02 01:35:15;;;;;;;12.73;3.60;;;9.60;99.90;;;;;;5080032;28;20457;-88
2022/02/02 01:37:44;;;;;;;12.93;2.87;;;9.70;99.90;;;;;;5082053;28;20208;-89
2022/02/02 01:40:20;;;;;;;15.30;3.03;;;9.70;99.90;;;;;;5082457;28;20190;-83
2022/02/02 01:42:55;;;;;;;11.47;2.90;;;9.80;99.90;;;;;;5081884;28;20205;-85
2022/02/02 01:45:34;;;;;;;10.80;2.93;;;9.70;99.90;;;;;;5082038;28;20204;-81
2022/02/02 01:48:15;;;;;;;13.40;3.43;;;9.70;99.90;;;;;;5081149;28;20272;-82
2022/02/02 01:50:53;;;;;;;7.03;2.87;;;9.70;99.90;;;;;;5081750;28;20200;-83
2022/02/02 01:53:28;;;;;;;10.23;2.93;;;9.60;99.90;;;;;;5080602;28;20220;-88
2022/02/02 01:55:58;;;;;;;14.50;3.00;;;9.60;99.90;;;;;;5081275;28;20239;-89
2022/02/02 01:58:52;;;;;;;11.93;2.73;;;9.70;99.90;;;;;;5089483;28;20205;-85
2022/02/02 02:01:21;;;;;;;15.90;3.67;;;9.70;99.90;;;;;;5100972;28;20414;-79
2022/02/02 02:03:51;;;;;;;11.13;2.83;;;9.70;99.90;;;;;;5096022;28;20208;-87
2022/02/02 02:06:20;;;;;;;14.63;3.33;;;9.80;99.90;;;;;;5098011;28;20292;-84
2022/02/02 02:08:47;;;;;;;11.27;3.03;;;9.70;99.90;;;;;;5098443;28;20235;-88
2022/02/02 02:11:17;;;;;;;11.57;3.60;;;9.70;99.90;;;;;;5097685;28;20220;-84
2022/02/02 02:14:31;;;;;;;11.10;2.73;;;9.70;99.90;;;;;;5097132;28;20193;-83
2022/02/02 02:16:52;;;;;;;10.83;2.83;;;9.60;99.90;;;;;;5097257;28;20201;-84
2022/02/02 02:19:22;;;;;;;8.23;2.40;;;9.60;99.90;;;;;;5097367;28;20667;-84
2022/02/02 02:21:50;;;;;;;9.13;2.83;;;9.70;99.90;;;;;;5097065;28;20661;-84
2022/02/02 02:24:22;;;;;;;8.13;2.27;;;9.70;99.90;;;;;;5097092;28;20296;-80
2022/02/02 02:26:49;;;;;;;6.13;2.33;;;9.70;99.90;;;;;;5097592;28;20216;-86
2022/02/02 02:29:31;;;;;;;10.57;2.53;;;9.80;99.90;;;;;;5097211;28;20229;-86
2022/02/02 02:32:19;;;;;;;8.73;2.70;;;9.70;99.90;;;;;;5097945;28;20204;-83
2022/02/02 02:35:12;;;;;;;9.70;2.77;;;9.60;99.90;;;;;;5096405;28;20208;-89
2022/02/02 02:37:57;;;;;;;7.60;2.40;;;9.60;99.90;;;;;;5097002;28;20221;-85
2022/02/02 02:55:47;;;;;;;7.60;2.67;;;9.60;99.90;;;;;;5097229;28;20621;-85
2022/02/02 02:57:14;;;;;;;9.83;2.77;;;9.50;99.90;;;;;;5097497;28;20228;-87
2022/02/02 02:59:46;;;;;;;8.60;2.70;;;9.60;99.90;;;;;;5096941;28;20205;-80
2022/02/02 03:03:00;;;;;;;8.43;2.40;;;9.60;99.90;;;;;;5097018;28;20599;-85
2022/02/02 03:14:47;;;;;;;8.10;3.10;;;9.40;99.90;;;;;;5033115;28;20281;-85
2022/02/02 03:31:13;;;;;;;6.77;2.50;;;9.40;99.90;;;;;;5090831;28;20270;-82
2022/02/02 03:56:26;;;;;;;7.17;2.13;;;9.40;99.90;;;;;;5089744;28;20254;-83
2022/02/02 03:59:07;;;;;;;4.70;1.93;;;9.30;99.90;;;;;;5097541;28;20224;-86
2022/02/02 04:01:50;;;;;;;6.90;2.10;;;9.40;99.90;;;;;;5097546;28;20213;-79
2022/02/02 04:04:27;;;;;;;6.77;2.37;;;9.40;99.90;;;;;;5098077;28;20341;-84
2022/02/02 04:07:03;;;;;;;11.00;2.88;;;9.40;99.90;;;;;;5095750;28;20936;-85
2022/02/02 04:09:34;;;;;;;6.13;2.30;;;9.60;99.90;;;;;;5094562;28;20228;-81
2022/02/02 04:12:09;;;;;;;9.60;2.30;;;9.50;99.90;;;;;;5094185;28;20201;-80
2022/02/02 04:17:50;;;;;;;12.27;2.67;;;9.50;99.90;;;;;;5011670;28;20196;-89
2022/02/02 04:54:16;;;;;;;5.53;1.77;;;9.70;99.90;;;;;;5094729;28;20223;-90
2022/02/02 05:00:16;;;;;;;4.47;2.23;;;9.70;99.90;;;;;;5032415;28;20199;-86
2022/02/02 05:05:49;;;;;;;8.37;2.60;;;9.60;99.90;;;;;;5094312;28;20240;-87
2022/02/02 05:08:26;;;;;;;6.10;2.53;;;9.60;99.90;;;;;;5095266;28;20189;-88
2022/02/02 05:11:14;;;;;;;8.20;2.20;;;9.70;99.90;;;;;;5095497;28;20223;-87
2022/02/02 05:44:34;;;;;;;4.20;1.87;;;9.60;99.90;;;;;;5079333;28;20651;-81
2022/02/02 05:50:05;;;;;;;5.57;1.77;;;9.70;99.90;;;;;;5093411;28;20647;-80
2022/02/02 05:52:32;;;;;;;3.50;1.80;;;9.70;99.90;;;;;;5093586;28;20239;-79
2022/02/02 05:54:59;;;;;;;3.50;1.63;;;9.70;99.90;;;;;;5091613;28;20193;-80
2022/02/02 05:57:28;;;;;;;6.13;1.80;;;9.80;99.90;;;;;;5091418;28;20203;-78
2022/02/02 05:59:59;;;;;;;6.83;1.90;;;9.60;99.90;;;;;;5092427;28;20540;-79
2022/02/02 06:02:32;;;;;;;6.43;1.90;;;9.70;99.90;;;;;;5075433;28;20209;-78
2022/02/02 06:05:03;;;;;;;8.77;2.10;;;9.70;99.90;;;;;;5071499;28;20578;-79
2022/02/02 06:07:35;;;;;;;3.60;1.77;;;9.80;99.90;;;;;;5070506;28;20264;-79
2022/02/02 06:10:06;;;;;;;6.67;2.10;;;9.70;99.90;;;;;;5071608;28;20259;-80
2022/02/02 06:12:35;;;;;;;5.17;1.97;;;9.80;99.90;;;;;;5073403;28;20210;-78
2022/02/02 06:15:11;;;;;;;5.43;1.90;;;9.70;99.90;;;;;;5072456;28;20190;-83
2022/02/02 06:17:44;;;;;;;4.90;1.80;;;9.70;99.90;;;;;;5071585;28;20186;-82
2022/02/02 06:20:13;;;;;;;5.90;1.97;;;9.70;99.90;;;;;;5069882;28;20197;-79
2022/02/02 06:22:43;;;;;;;7.17;2.37;;;9.70;99.90;;;;;;5071649;28;20661;-81
2022/02/02 06:25:21;;;;;;;3.77;1.73;;;9.60;99.90;;;;;;5071568;28;20209;-81
2022/02/02 06:27:59;;;;;;;5.57;2.03;;;9.70;99.90;;;;;;5071395;28;20224;-78
2022/02/02 06:30:29;;;;;;;6.10;2.00;;;9.70;99.90;;;;;;5071702;28;20202;-83
2022/02/02 06:33:04;;;;;;;5.60;2.03;;;9.60;99.90;;;;;;5070265;28;20190;-79
2022/02/02 06:35:32;;;;;;;5.77;1.83;;;9.70;99.90;;;;;;5070474;28;20216;-79
2022/02/02 06:37:59;;;;;;;6.10;2.13;;;9.70;99.90;;;;;;5063036;28;20635;-80
2022/02/02 06:40:28;;;;;;;4.50;1.80;;;9.80;99.90;;;;;;5056736;28;20226;-82
2022/02/02 06:42:56;;;;;;;7.63;1.93;;;9.70;99.90;;;;;;5057386;28;20203;-80
2022/02/02 06:45:24;;;;;;;8.30;1.73;;;9.70;99.90;;;;;;5056316;28;20203;-79
2022/02/02 06:47:53;;;;;;;5.70;2.20;;;9.70;99.90;;;;;;5057184;28;20321;-79
2022/02/02 06:50:26;;;;;;;4.23;1.80;;;9.70;99.90;;;;;;5056301;28;20218;-81
2022/02/02 06:53:09;;;;;;;6.23;2.10;;;9.60;99.90;;;;;;5057405;28;20217;-79
2022/02/02 06:55:48;;;;;;;12.57;2.63;;;9.50;99.90;;;;;;5059082;28;20324;-82
2022/02/02 06:58:32;;;;;;;11.90;5.67;;;9.50;99.90;;;;;;5058984;28;20194;-89
2022/02/02 07:01:29;;;;;;;5.83;2.00;;;9.60;99.90;;;;;;5056737;28;20198;-92
2022/02/02 07:04:13;;;;;;;7.53;2.70;;;9.60;99.90;;;;;;5058818;28;20225;-88
2022/02/02 07:06:50;;;;;;;8.47;2.70;;;9.70;99.90;;;;;;5059628;28;20222;-87
2022/02/02 07:09:31;;;;;;;6.20;2.30;;;9.70;99.90;;;;;;5060037;28;20684;-89
2022/02/02 07:12:10;;;;;;;4.27;1.90;;;9.70;99.90;;;;;;5058785;28;20228;-91
2022/02/02 07:17:44;;;;;;;9.57;2.73;;;9.80;99.90;;;;;;5176363;27;20450;-91
2022/02/02 07:20:20;;;;;;;8.73;2.67;;;9.80;99.90;;;;;;5174902;27;20672;-89
2022/02/02 07:25:59;;;;;;;9.30;2.17;;;9.70;99.90;;;;;;5171548;27;20190;-82
2022/02/02 07:28:54;;;;;;;6.67;1.80;;;9.70;99.90;;;;;;5153283;27;20232;-90
2022/02/02 07:31:41;;;;;;;6.53;1.93;;;9.80;99.90;;;;;;5155772;27;20203;-84
2022/02/02 07:34:27;;;;;;;12.33;2.10;;;9.70;99.90;;;;;;5173025;27;20183;-87
2022/02/02 07:37:07;;;;;;;12.17;2.50;;;9.70;99.90;;;;;;5173131;27;20219;-86
2022/02/02 07:39:41;;;;;;;7.87;2.50;;;9.70;99.90;;;;;;5173511;27;20233;-84
2022/02/02 07:42:11;;;;;;;4.67;1.93;;;9.80;99.90;;;;;;5175176;27;20340;-87
2022/02/02 07:44:52;;;;;;;11.00;2.30;;;10.00;99.90;;;;;;5175241;27;20191;-88
2022/02/02 07:47:20;;;;;;;5.37;1.90;;;9.90;99.90;;;;;;5174543;27;20201;-86
2022/02/02 07:49:58;;;;;;;7.13;2.20;;;9.70;99.90;;;;;;5175657;27;20226;-88
2022/02/02 07:52:29;;;;;;;6.77;2.20;;;9.70;99.90;;;;;;5175042;27;20218;-86
2022/02/02 07:54:58;;;;;;;11.13;2.23;;;9.60;99.90;;;;;;5183790;27;20233;-84
2022/02/02 07:57:28;;;;;;;5.93;2.33;;;9.60;99.90;;;;;;5179174;27;20237;-82
2022/02/02 07:59:59;;;;;;;10.57;2.20;;;9.50;99.90;;;;;;5177184;27;20195;-83
2022/02/02 08:02:42;;;;;;;5.67;2.10;;;9.50;99.90;;;;;;5177453;27;20199;-82
2022/02/02 08:05:15;;;;;;;10.27;2.20;;;9.50;99.90;;;;;;5174314;27;20640;-81
2022/02/02 08:07:47;;;;;;;7.43;2.57;;;9.50;99.90;;;;;;5172244;27;20207;-78
2022/02/02 08:10:20;;;;;;;8.50;2.47;;;9.50;99.90;;;;;;5172752;27;20197;-81
2022/02/02 08:12:50;;;;;;;8.93;3.00;;;9.40;99.90;;;;;;5172911;27;20293;-79
2022/02/02 08:15:19;;;;;;;9.00;2.20;;;9.50;99.90;;;;;;5172475;27;20191;-84
2022/02/02 08:17:49;;;;;;;6.23;2.37;;;9.40;99.90;;;;;;5173172;27;20207;-86
2022/02/02 08:20:19;;;;;;;8.90;2.70;;;9.40;99.90;;;;;;5173317;27;20197;-87
2022/02/02 08:22:49;;;;;;;7.30;2.30;;;9.40;99.90;;;;;;5173347;27;20190;-87
2022/02/02 08:25:25;;;;;;;7.73;2.33;;;9.50;99.90;;;;;;5172621;27;20199;-81
2022/02/02 08:27:53;;;;;;;8.07;2.80;;;9.50;99.90;;;;;;5163817;27;20213;-87
2022/02/02 08:30:24;;;;;;;7.47;2.40;;;9.50;99.90;;;;;;5159246;27;20191;-86
2022/02/02 08:32:57;;;;;;;7.32;3.00;;;9.50;99.90;;;;;;5158490;27;20421;-86
2022/02/02 08:35:30;;;;;;;8.83;2.50;;;9.50;99.90;;;;;;5158497;27;20194;-87
2022/02/02 08:38:07;;;;;;;7.20;2.30;;;9.50;99.90;;;;;;5158737;27;20195;-88
2022/02/02 08:40:38;;;;;;;8.87;2.93;;;9.50;99.90;;;;;;5158377;27;20577;-86
2022/02/02 08:43:11;;;;;;;9.67;2.70;;;9.30;99.90;;;;;;5158194;27;20192;-87
2022/02/02 08:45:40;;;;;;;10.13;2.87;;;9.60;99.90;;;;;;5159076;27;20191;-89
2022/02/02 08:48:10;;;;;;;7.80;2.30;;;9.60;99.90;;;;;;5158944;27;20240;-85
2022/02/02 08:50:50;;;;;;;11.50;3.17;;;9.60;99.90;;;;;;5159256;27;20247;-88
2022/02/02 08:53:31;;;;;;;7.83;2.40;;;9.60;99.90;;;;;;5158940;27;20187;-89
2022/02/02 08:56:20;;;;;;;10.57;2.60;;;9.40;99.90;;;;;;5157973;27;20230;-86
2022/02/02 08:59:01;;;;;;;10.00;2.53;;;9.50;99.90;;;;;;5156513;27;20535;-86
2022/02/02 09:01:35;;;;;;;9.20;2.90;;;9.30;99.90;;;;;;5159434;27;20207;-88
2022/02/02 09:06:58;;;;;;;9.90;2.90;;;9.30;99.90;;;;;;5160251;27;20271;-86
2022/02/02 09:09:46;;;;;;;10.30;3.63;;;9.30;99.90;;;;;;5159564;27;20196;-85
2022/02/02 09:21:02;;;;;;;14.73;4.13;;;9.30;99.90;;;;;;5156460;27;20223;-78
2022/02/02 09:23:32;;;;;;;10.20;3.23;;;9.20;99.90;;;;;;5156320;27;20257;-78
2022/02/02 09:26:24;;;;;;;9.03;3.20;;;9.20;99.90;;;;;;5156118;27;20202;-77
2022/02/02 09:31:47;;;;;;;13.63;3.60;;;9.30;99.90;;;;;;5156354;27;20210;-77
2022/02/02 09:34:16;;;;;;;10.77;3.90;;;9.50;99.90;;;;;;5156256;27;20207;-79
2022/02/02 09:36:45;;;;;;;9.20;3.90;;;9.50;99.90;;;;;;5155896;27;20318;-77
2022/02/02 09:39:19;;;;;;;12.27;4.63;;;9.60;99.90;;;;;;5155015;27;20231;-81
2022/02/02 09:41:49;;;;;;;11.63;4.47;;;9.70;99.90;;;;;;5155989;27;20236;-81
2022/02/02 09:44:20;;;;;;;8.73;4.90;;;9.60;99.90;;;;;;5156748;27;20195;-83
2022/02/02 09:47:01;;;;;;;8.73;4.73;;;9.60;99.90;;;;;;5156452;27;20560;-85
2022/02/02 09:49:36;;;;;;;9.90;5.53;;;9.70;99.90;;;;;;5156159;27;20199;-83
2022/02/02 09:52:09;;;;;;;8.77;4.90;;;9.70;99.90;;;;;;5156724;27;20189;-83
2022/02/02 09:54:44;;;;;;;10.80;4.83;;;9.70;99.90;;;;;;5156198;27;20222;-84
2022/02/02 10:00:00;;;;;;;11.17;5.20;;;9.70;99.90;;;;;;5155685;27;20630;-83
2022/02/02 10:02:34;;;;;;;11.27;6.20;;;9.70;99.90;;;;;;5156089;27;20206;-82
2022/02/02 10:05:07;;;;;;;7.70;6.17;;;9.70;99.90;;;;;;5156038;27;20199;-80
2022/02/02 10:07:54;;;;;;;10.27;6.37;;;9.70;99.90;;;;;;5155751;27;20267;-82
2022/02/02 10:10:49;;;;;;;9.20;6.43;;;9.60;99.90;;;;;;5155424;27;20206;-82
2022/02/02 10:13:24;;;;;;;9.17;6.87;;;9.70;99.90;;;;;;5155681;27;20199;-81
2022/02/02 10:15:53;;;;;;;8.47;7.00;;;9.80;99.90;;;;;;5155254;27;20217;-81
2022/02/02 10:18:30;;;;;;;10.07;7.10;;;9.80;99.90;;;;;;5155468;27;20213;-85
2022/02/02 10:20:57;;;;;;;10.60;8.00;;;9.90;99.90;;;;;;5155039;27;20672;-82
2022/02/02 10:23:26;;;;;;;20.20;8.57;;;9.90;99.90;;;;;;5158082;27;20209;-80
2022/02/02 10:25:58;;;;;;;9.07;8.07;;;10.10;99.90;;;;;;5158113;27;20186;-80
2022/02/02 10:28:29;;;;;;;12.73;8.80;;;10.20;99.90;;;;;;5164348;27;20200;-79
2022/02/02 10:31:03;;;;;;;9.27;8.37;;;10.00;99.90;;;;;;5162357;27;20182;-78
2022/02/02 10:33:31;;;;;;;8.77;7.87;;;10.10;99.90;;;;;;5166116;27;20194;-81
2022/02/02 10:36:06;;;;;;;11.43;8.83;;;10.10;99.90;;;;;;5163243;27;20546;-81
2022/02/02 10:38:42;;;;;;;11.43;9.07;;;10.20;99.90;;;;;;5151075;27;20199;-79
2022/02/02 10:41:18;;;;;;;9.70;8.20;;;10.40;99.90;;;;;;5152753;27;20627;-80
2022/02/02 10:43:53;;;;;;;10.33;8.07;;;10.30;99.90;;;;;;5154083;27;20290;-79
2022/02/02 10:46:26;;;;;;;9.17;8.27;;;10.50;99.90;;;;;;5154258;27;20206;-82
2022/02/02 10:49:00;;;;;;;9.70;8.70;;;10.50;99.90;;;;;;5151824;27;20607;-80
2022/02/02 10:51:37;;;;;;;9.13;8.30;;;10.30;99.90;;;;;;5153564;27;20187;-79
2022/02/02 10:54:17;;;;;;;10.30;8.03;;;10.30;99.90;;;;;;5153814;27;20524;-79
2022/02/02 10:56:51;;;;;;;9.97;8.97;;;10.30;99.90;;;;;;5153456;27;20218;-80
2022/02/02 10:59:30;;;;;;;9.13;8.17;;;10.20;99.90;;;;;;5154056;27;20196;-81
2022/02/02 11:07:27;;;;;;;9.27;8.47;;;10.40;99.90;;;;;;5156192;27;20198;-79
2022/02/02 11:09:55;;;;;;;10.80;9.57;;;10.30;99.90;;;;;;5154047;27;20195;-78
2022/02/02 11:12:30;;;;;;;10.77;8.83;;;10.10;99.90;;;;;;5151932;27;20203;-80
2022/02/02 11:15:07;;;;;;;10.30;9.23;;;10.20;99.90;;;;;;5150782;27;20190;-82
2022/02/02 11:17:47;;;;;;;13.57;8.50;;;10.30;99.90;;;;;;5145398;27;20215;-83
2022/02/02 11:20:17;;;;;;;13.33;9.20;;;10.40;99.90;;;;;;5155890;27;20191;-82
2022/02/02 11:22:50;;;;;;;12.13;8.50;;;10.40;99.90;;;;;;5154734;27;20203;-79
2022/02/02 11:25:38;;;;;;;11.60;7.80;;;10.40;99.90;;;;;;5154658;27;20195;-87
2022/02/02 11:28:30;;;;;;;11.73;7.00;;;10.30;99.90;;;;;;5153917;27;20234;-83
2022/02/02 11:31:09;;;;;;;16.13;7.43;;;10.20;99.90;;;;;;5154726;27;20295;-79
2022/02/02 11:33:44;;;;;;;9.40;6.70;;;10.30;99.90;;;;;;5155013;27;20199;-82
2022/02/02 11:36:29;;;;;;;9.97;6.80;;;10.30;99.90;;;;;;5156069;27;20191;-80
2022/02/02 11:38:57;;;;;;;11.73;7.23;;;10.30;99.90;;;;;;5155079;27;20195;-85
2022/02/02 11:41:54;;;;;;;13.20;11.05;;;10.10;99.90;;;;;;5153442;27;20506;-83
2022/02/02 11:44:41;;;;;;;11.17;9.67;;;10.10;99.90;;;;;;5154328;27;20211;-79
2022/02/02 11:47:21;;;;;;;12.30;9.17;;;10.10;99.90;;;;;;5151269;27;20209;-80
2022/02/02 11:49:54;;;;;;;13.47;8.50;;;10.00;99.90;;;;;;5154629;27;20638;-84
2022/02/02 11:52:37;;;;;;;10.47;8.63;;;10.00;99.90;;;;;;5151894;27;20658;-82
2022/02/02 11:55:28;;;;;;;12.23;9.10;;;10.00;99.90;;;;;;5133979;28;20203;-86
2022/02/02 11:58:00;;;;;;;10.27;8.10;;;10.10;99.90;;;;;;5133866;28;20227;-86
2022/02/02 12:00:37;;;;;;;9.70;7.93;;;10.00;99.90;;;;;;5134090;28;20198;-87
2022/02/02 12:06:11;;;;;;;8.90;7.60;;;10.20;99.90;;;;;;5132434;27;20303;-86
2022/02/02 12:08:48;;;;;;;8.20;6.77;;;10.10;99.90;;;;;;5138210;27;20659;-86
2022/02/02 12:11:41;;;;;;;11.00;7.33;;;10.10;99.90;;;;;;5137999;27;20246;-82
2022/02/02 12:45:34;;;;;;;15.37;10.67;;;10.00;99.90;;;;;;5157407;27;20235;-81
2022/02/02 12:48:02;;;;;;;11.33;10.23;;;10.00;99.90;;;;;;5157158;27;20207;-86
2022/02/02 12:56:34;;;;;;;17.80;13.30;;;10.20;99.90;;;;;;5114739;27;20519;-80
2022/02/02 13:02:07;;;;;;;17.73;11.70;;;10.40;99.90;;;;;;5154301;27;20257;-83
2022/02/02 13:04:34;;;;;;;13.53;11.07;;;10.30;99.90;;;;;;5146543;27;20199;-84
2022/02/02 13:07:16;;;;;;;12.60;11.20;;;10.10;99.90;;;;;;5157392;27;20187;-84
2022/02/02 13:09:46;;;;;;;13.87;11.53;;;10.10;99.90;;;;;;5157572;27;20203;-83
2022/02/02 13:12:32;;;;;;;12.90;10.97;;;10.30;99.90;;;;;;5157209;27;20206;-86
2022/02/02 13:15:25;;;;;;;12.33;10.97;;;10.40;99.90;;;;;;5157062;27;20289;-86
2022/02/02 13:18:10;;;;;;;14.03;12.07;;;10.40;99.90;;;;;;5156758;27;20298;-84
2022/02/02 13:20:51;;;;;;;12.33;11.13;;;10.30;99.90;;;;;;5157015;27;20207;-82
2022/02/02 13:23:27;;;;;;;12.30;10.50;;;10.50;99.90;;;;;;5157136;27;20267;-81
2022/02/02 13:25:57;;;;;;;13.20;10.60;;;10.30;99.90;;;;;;5156670;27;20192;-83
2022/02/02 13:28:48;;;;;;;12.67;10.43;;;10.30;99.90;;;;;;5156674;27;20191;-88
2022/02/02 13:31:45;;;;;;;12.57;10.70;;;10.30;99.90;;;;;;5157060;27;20195;-84
2022/02/02 13:34:20;;;;;;;13.75;10.48;;;10.20;99.90;;;;;;5156784;27;20896;-83
2022/02/02 13:37:15;;;;;;;12.13;10.93;;;10.30;99.90;;;;;;5155754;27;20195;-82
2022/02/02 13:45:50;;;;;;;10.37;9.17;;;10.40;99.90;;;;;;5156930;27;20198;-87
2022/02/02 13:48:51;;;;;;;11.73;10.50;;;10.30;99.90;;;;;;5156367;27;20283;-86
2022/02/02 13:54:29;;;;;;;12.03;10.37;;;10.60;99.90;;;;;;5156617;27;20198;-87
2022/02/02 13:57:28;;;;;;;12.30;10.07;;;10.60;99.90;;;;;;5154711;27;20722;-86
2022/02/02 14:09:00;;;;;;;9.67;8.67;;;10.70;99.90;;;;;;5155669;27;20231;-81
2022/02/02 14:11:23;;;;;;;11.80;9.20;;;10.60;99.90;;;;;;5155816;27;20283;-83
2022/02/02 14:33:18;;;;;;;9.07;5.90;;;10.20;99.90;;;;;;5157629;27;20202;-82
2022/02/02 14:35:46;;;;;;;10.80;6.63;;;10.10;99.90;;;;;;5157005;27;20226;-80
2022/02/02 14:38:14;;;;;;;10.03;6.33;;;10.00;99.90;;;;;;5155202;27;20646;-80
2022/02/02 14:40:55;;;;;;;7.07;6.27;;;10.10;99.90;;;;;;5156137;27;20223;-83
2022/02/02 14:43:28;;;;;;;10.83;6.67;;;10.20;99.90;;;;;;5155885;27;20608;-83
2022/02/02 14:45:59;;;;;;;7.50;5.97;;;10.20;99.90;;;;;;5154915;27;20205;-84
2022/02/02 14:48:31;;;;;;;8.90;6.87;;;10.20;99.90;;;;;;5155490;27;20233;-83
2022/02/02 14:51:05;;;;;;;7.80;6.93;;;10.10;99.90;;;;;;5154421;27;20199;-82
2022/02/02 14:53:39;;;;;;;9.87;7.07;;;10.30;99.90;;;;;;5154301;27;20203;-83
2022/02/02 14:56:32;;;;;;;8.27;6.43;;;10.20;99.90;;;;;;5155604;27;20203;-85
2022/02/02 15:16:48;;;;;;;14.70;7.77;;;10.20;99.90;;;;;;5155077;27;20723;-83
2022/02/02 15:24:35;;;;;;;13.77;8.07;;;10.20;99.90;;;;;;5156250;27;20185;-83
2022/02/02 15:27:26;;;;;;;15.30;8.33;;;10.20;99.90;;;;;;5157958;27;20259;-84
2022/02/02 15:30:10;;;;;;;16.40;10.50;;;10.20;99.90;;;;;;5156896;27;20437;-84
2022/02/02 15:32:42;;;;;;;15.10;9.90;;;10.30;99.90;;;;;;5159158;27;20565;-85
2022/02/02 15:35:10;;;;;;;15.73;9.47;;;10.20;99.90;;;;;;5159023;27;20656;-84
2022/02/02 15:37:45;;;;;;;17.83;9.73;;;10.20;99.90;;;;;;5156711;27;20223;-87
2022/02/02 15:40:13;;;;;;;16.83;8.93;;;10.10;99.90;;;;;;5159169;27;20218;-80
2022/02/02 15:42:59;;;;;;;14.37;9.10;;;10.20;99.90;;;;;;5159518;27;20203;-79
2022/02/02 15:59:34;;;;;;;14.77;8.97;;;9.90;99.90;;;;;;5159192;27;20241;-82
2022/02/02 16:02:10;;;;;;;12.07;8.47;;;9.90;99.90;;;;;;5158700;27;20203;-80
2022/02/02 16:04:40;;;;;;;18.07;9.03;;;9.80;99.90;;;;;;5159299;27;20656;-83
2022/02/02 16:07:12;;;;;;;14.27;9.60;;;9.90;99.90;;;;;;5159335;27;20201;-82
2022/02/02 16:09:49;;;;;;;18.00;9.60;;;9.90;99.90;;;;;;5158542;27;20302;-84
2022/02/02 16:12:20;;;;;;;18.57;10.40;;;10.00;99.90;;;;;;5157741;27;20538;-79
2022/02/02 16:14:52;;;;;;;17.90;10.50;;;10.10;99.90;;;;;;5158244;27;20592;-80
2022/02/02 16:34:38;;;;;;;14.83;10.40;;;10.00;99.90;;;;;;5157418;27;20271;-84
2022/02/02 16:36:55;;;;;;;18.93;10.33;;;9.90;99.90;;;;;;5157183;27;20199;-80
2022/02/02 16:39:25;;;;;;;14.20;10.20;;;9.80;99.90;;;;;;5157356;27;20839;-78
2022/02/02 16:44:36;;;;;;;14.80;9.93;;;9.90;99.90;;;;;;5157396;27;20210;-80
2022/02/02 16:47:04;;;;;;;14.47;10.90;;;9.80;99.90;;;;;;5156793;27;20214;-81
2022/02/02 16:49:31;;;;;;;14.20;10.10;;;9.80;99.90;;;;;;5156591;27;20234;-79
2022/02/02 16:51:57;;;;;;;15.13;10.27;;;9.80;99.90;;;;;;5157308;27;20273;-80
2022/02/02 16:54:31;;;;;;;13.70;9.70;;;9.80;99.90;;;;;;5157254;27;20187;-80
2022/02/02 16:57:13;;;;;;;16.17;10.40;;;9.80;99.90;;;;;;5156832;27;20195;-79
2022/02/02 17:24:40;;;;;;;14.77;13.20;;;9.90;99.90;;;;;;5155198;27;20409;-79
2022/02/02 17:30:14;;;;;;;18.03;12.23;;;9.90;99.90;;;;;;5156000;27;20248;-83
2022/02/02 17:32:51;;;;;;;14.17;11.73;;;9.80;99.90;;;;;;5156342;27;20198;-79
2022/02/02 17:35:34;;;;;;;18.33;12.10;;;9.80;99.90;;;;;;5156417;27;20191;-79
2022/02/02 17:38:08;;;;;;;13.77;11.47;;;9.90;99.90;;;;;;5156112;27;20229;-80
2022/02/02 18:19:43;;;;;;;13.60;9.90;;;9.70;99.90;;;;;;5150847;27;20300;-80
2022/02/02 18:22:09;;;;;;;11.50;10.23;;;9.80;99.90;;;;;;5151026;27;20594;-83
2022/02/02 18:24:48;;;;;;;11.50;10.40;;;9.70;99.90;;;;;;5151313;27;20566;-80
2022/02/02 18:27:21;;;;;;;11.43;9.90;;;9.80;99.90;;;;;;5151392;27;20193;-83
2022/02/02 18:29:59;;;;;;;11.10;10.00;;;9.70;99.90;;;;;;5151520;27;20203;-80
2022/02/02 18:32:41;;;;;;;11.37;10.20;;;9.70;99.90;;;;;;5151649;27;20290;-83
2022/02/02 18:35:14;;;;;;;15.73;10.53;;;9.80;99.90;;;;;;5151243;27;20199;-82
2022/02/02 18:48:54;;;;;;;14.17;9.33;;;9.90;99.90;;;;;;5107284;28;20212;-80
2022/02/02 18:54:33;;;;;;;10.37;9.27;;;9.80;99.90;;;;;;5087004;28;20228;-80
2022/02/02 18:57:14;;;;;;;11.17;9.17;;;9.90;99.90;;;;;;5087377;28;20209;-80
2022/02/02 19:00:09;;;;;;;10.47;9.43;;;9.80;99.90;;;;;;5125561;27;20556;-79
2022/02/02 19:03:00;;;;;;;12.63;9.27;;;9.70;99.90;;;;;;5150664;27;20234;-81
2022/02/02 19:14:50;;;;;;;10.07;9.10;;;9.70;99.90;;;;;;5149992;27;20559;-81
2022/02/02 19:55:37;;;;;;;19.87;17.77;;;9.90;99.90;;;;;;5109581;27;20197;-80
2022/02/02 20:04:00;;;;;;;24.87;19.47;;;9.80;99.90;;;;;;5114919;28;20191;-79
2022/02/02 20:06:46;;;;;;;23.17;19.33;;;9.80;99.90;;;;;;5120039;27;20218;-78
2022/02/02 20:09:37;;;;;;;23.87;20.30;;;9.80;99.90;;;;;;5124704;27;20211;-79
2022/02/02 20:12:08;;;;;;;26.93;21.87;;;9.80;99.90;;;;;;5136250;27;20204;-81
2022/02/02 20:14:38;;;;;;;24.13;21.53;;;9.90;99.90;;;;;;5144324;27;20319;-79
2022/02/02 20:17:11;;;;;;;26.97;21.93;;;9.90;99.90;;;;;;5143130;27;20196;-78
2022/02/02 20:19:42;;;;;;;27.50;23.87;;;10.00;99.90;;;;;;5143182;27;20200;-80
2022/02/02 20:22:10;;;;;;;32.00;24.07;;;10.00;99.90;;;;;;5142171;27;20220;-82
2022/02/02 20:24:49;;;;;;;31.90;25.73;;;10.00;99.90;;;;;;5141482;27;20218;-79
2022/02/02 20:27:18;;;;;;;26.37;23.33;;;10.10;99.90;;;;;;5140409;27;20218;-78
2022/02/02 20:29:48;;;;;;;26.70;22.80;;;10.10;99.90;;;;;;5143997;27;20192;-77
2022/02/02 20:32:19;;;;;;;28.20;23.90;;;10.10;99.90;;;;;;5143720;27;20206;-78
2022/02/02 20:34:47;;;;;;;33.50;23.67;;;10.00;99.90;;;;;;5142335;27;20242;-79
2022/02/02 20:37:18;;;;;;;25.93;22.93;;;10.00;99.90;;;;;;5125326;27;20201;-79
2022/02/02 20:39:51;;;;;;;27.53;23.80;;;10.00;99.90;;;;;;5114155;28;20256;-79
2022/02/02 20:42:27;;;;;;;31.60;23.37;;;10.00;99.90;;;;;;5114616;28;20220;-81
2022/02/02 20:45:11;;;;;;;32.13;22.57;;;10.00;99.90;;;;;;5114477;28;20204;-79
2022/02/02 21:04:28;;;;;;;28.50;25.50;;;10.00;99.90;;;;;;5100086;28;20416;-80
2022/02/02 21:09:52;;;;;;;25.87;19.97;;;10.00;99.90;;;;;;5109474;28;20257;-79
2022/02/02 21:15:13;;;;;;;25.37;20.47;;;10.10;99.90;;;;;;5113706;28;20773;-80
2022/02/02 21:17:42;;;;;;;23.73;20.00;;;10.00;99.90;;;;;;5113233;28;20198;-80
2022/02/02 21:20:16;;;;;;;23.27;18.97;;;9.90;99.90;;;;;;5113329;28;20739;-79
2022/02/02 21:22:50;;;;;;;29.23;18.90;;;9.90;99.90;;;;;;5113026;27;20242;-86